Time;durP1;ratioP1;P1;durP2;ratioP2;P2;SDS_P1;SDS_P2;PMS_P1;PMS_P2;Temp;Humidity;BMP_temperature;BMP_pressure;BME280_temperature;BME280_humidity;BME280_pressure;Samples;Min_cycle;Max_cycle;Signal;HPM_P1;HPM_P2
2023/05/21 15:34:21;;;;;;;7.47;5.43;;;;;;;;;;5084740;22;20495;-80
2023/05/21 15:36:49;;;;;;;9.60;6.33;;;;;;;;;;5076166;28;20448;-80
2023/05/21 15:39:22;;;;;;;7.83;6.53;;;;;;;;;;5096562;28;20539;-80
2023/05/21 15:41:52;;;;;;;6.47;5.43;;;;;;;;;;5095476;28;20648;-80
2023/05/21 15:44:21;;;;;;;8.47;7.20;;;;;;;;;;5100225;28;20522;-79
2023/05/21 15:46:55;;;;;;;6.57;5.73;;;;;;;;;;5102635;28;20544;-79
2023/05/21 15:49:26;;;;;;;8.10;6.70;;;;;;;;;;5102308;28;20451;-81
2023/05/21 15:51:59;;;;;;;10.07;6.40;;;;;;;;;;5103313;28;20456;-80
2023/05/21 15:54:28;;;;;;;7.57;6.17;;;;;;;;;;5085936;28;20460;-80
2023/05/21 15:56:56;;;;;;;6.77;5.60;;;;;;;;;;5104138;28;20439;-82
2023/05/21 15:59:33;;;;;;;7.97;6.67;;;;;;;;;;5084791;28;20458;-80
2023/05/21 16:02:01;;;;;;;8.47;6.73;;;;;;;;;;5104582;28;20513;-81
2023/05/21 16:04:31;;;;;;;9.17;6.70;;;;;;;;;;5103586;28;20439;-81
2023/05/21 16:07:00;;;;;;;6.17;5.37;;;;;;;;;;5103438;28;20559;-81
2023/05/21 16:09:32;;;;;;;9.67;6.40;;;;;;;;;;5102940;28;20485;-80
2023/05/21 16:12:00;;;;;;;6.63;6.03;;;;;;;;;;5099267;28;20533;-79
2023/05/21 16:14:29;;;;;;;7.30;6.17;;;;;;;;;;5100116;28;20452;-79
2023/05/21 16:16:58;;;;;;;6.67;5.97;;;;;;;;;;5101575;28;20736;-79
2023/05/21 16:19:29;;;;;;;7.33;6.43;;;;;;;;;;5103233;28;20448;-80
2023/05/21 16:24:56;;;;;;;7.27;6.57;;;;;;;;;;4264593;26;20556;-72
2023/05/21 16:27:34;;;;;;;9.13;6.40;;;;;;;;;;5096461;28;20557;-73
2023/05/21 16:30:24;;;;;;;6.50;5.80;;;;;;;;;;5095616;28;20447;-72
2023/05/21 16:33:05;;;;;;;7.20;5.70;;;;;;;;;;5097212;28;20447;-71
2023/05/21 16:35:43;;;;;;;8.03;6.20;;;;;;;;;;5092374;28;20560;-72
2023/05/21 16:38:19;;;;;;;7.00;6.30;;;;;;;;;;5095369;28;20490;-72
2023/05/21 16:41:08;;;;;;;5.70;5.10;;;;;;;;;;5095233;28;20467;-72
2023/05/21 16:43:40;;;;;;;6.90;5.20;;;;;;;;;;5096594;28;20522;-72
2023/05/21 16:46:31;;;;;;;9.00;6.07;;;;;;;;;;5094532;28;20456;-72
2023/05/21 16:49:04;;;;;;;8.13;5.47;;;;;;;;;;5097020;28;20437;-72
2023/05/21 16:51:40;;;;;;;13.47;8.90;;;;;;;;;;5090847;28;20891;-72
2023/05/21 16:54:12;;;;;;;6.43;5.83;;;;;;;;;;5086885;28;20468;-72
2023/05/21 16:56:57;;;;;;;8.20;6.03;;;;;;;;;;5083336;28;20461;-73
2023/05/21 16:59:39;;;;;;;8.13;5.80;;;;;;;;;;5031998;28;20842;-72
2023/05/21 17:02:10;;;;;;;8.70;6.60;;;;;;;;;;5092264;28;20460;-72
2023/05/21 17:04:42;;;;;;;6.80;5.57;;;;;;;;;;5096897;28;20448;-72
2023/05/21 17:07:24;;;;;;;;;;;;;;;;;;;;;
2023/05/21 17:09:53;;;;;;;7.20;5.60;;;;;;;;;;5102014;28;20451;-71
2023/05/21 17:12:31;;;;;;;7.33;6.10;;;;;;;;;;5101816;28;20444;-72
2023/05/21 17:15:14;;;;;;;6.13;5.50;;;;;;;;;;5095557;28;20451;-72
2023/05/21 17:17:46;;;;;;;9.93;6.10;;;;;;;;;;5078603;28;20838;-72
2023/05/21 17:20:56;;;;;;;9.43;7.97;;;;;;;;;;5096771;28;20513;-72
2023/05/21 17:23:33;;;;;;;7.23;6.40;;;;;;;;;;5056372;28;20487;-72
2023/05/21 17:26:19;;;;;;;7.50;5.50;;;;;;;;;;5092088;28;20826;-72
2023/05/21 17:29:00;;;;;;;7.07;5.90;;;;;;;;;;5085384;28;20436;-71
2023/05/21 17:31:42;;;;;;;7.03;6.30;;;;;;;;;;5078984;28;20534;-73
2023/05/21 17:34:18;;;;;;;7.13;5.50;;;;;;;;;;5090327;28;20535;-72
2023/05/21 17:37:18;;;;;;;6.40;5.27;;;;;;;;;;5092447;28;20451;-72
2023/05/21 17:39:57;;;;;;;9.37;6.20;;;;;;;;;;5085306;28;20518;-71
2023/05/21 17:42:26;;;;;;;6.87;5.93;;;;;;;;;;5075151;28;20506;-71
2023/05/21 17:45:08;;;;;;;7.80;6.20;;;;;;;;;;5081696;28;20444;-74
2023/05/21 17:47:50;;;;;;;8.97;7.27;;;;;;;;;;5092464;28;20483;-70
2023/05/21 17:50:28;;;;;;;9.07;7.20;;;;;;;;;;5091288;28;20855;-73
2023/05/21 17:53:01;;;;;;;8.00;6.50;;;;;;;;;;5101563;28;20468;-72
2023/05/21 17:55:32;;;;;;;8.00;6.50;;;;;;;;;;5091697;28;20440;-71
2023/05/21 17:58:04;;;;;;;6.97;6.27;;;;;;;;;;5090146;28;20444;-73
2023/05/21 18:00:32;;;;;;;6.83;5.90;;;;;;;;;;5090916;28;20541;-72
2023/05/21 18:03:03;;;;;;;7.90;6.33;;;;;;;;;;5073979;28;21245;-73
2023/05/21 18:05:31;;;;;;;10.43;5.80;;;;;;;;;;5071406;28;20449;-73
2023/05/21 18:08:03;;;;;;;6.37;5.77;;;;;;;;;;5071147;28;20481;-72
2023/05/21 18:10:31;;;;;;;7.77;6.40;;;;;;;;;;5069777;28;20459;-74
2023/05/21 18:13:03;;;;;;;7.00;5.77;;;;;;;;;;5092246;28;20448;-73
2023/05/21 18:15:36;;;;;;;10.50;6.53;;;;;;;;;;5085675;28;20545;-72
2023/05/21 18:18:16;;;;;;;7.40;6.13;;;;;;;;;;5090085;28;20508;-72
2023/05/21 18:20:47;;;;;;;6.47;5.70;;;;;;;;;;5092552;28;20440;-72
2023/05/21 18:23:21;;;;;;;8.00;6.53;;;;;;;;;;5092807;28;20491;-73
2023/05/21 18:26:04;;;;;;;7.30;6.60;;;;;;;;;;5094334;28;20459;-72
2023/05/21 18:28:39;;;;;;;8.47;7.10;;;;;;;;;;5092680;28;20571;-71
2023/05/21 18:31:07;;;;;;;6.90;6.20;;;;;;;;;;5093945;28;20532;-72
2023/05/21 18:33:45;;;;;;;7.07;6.33;;;;;;;;;;5095910;28;20463;-72
2023/05/21 18:36:17;;;;;;;11.33;6.70;;;;;;;;;;5094667;28;20545;-71
2023/05/21 18:38:59;;;;;;;10.47;7.50;;;;;;;;;;5075032;28;20470;-72
2023/05/21 18:44:16;;;;;;;10.17;7.20;;;;;;;;;;5090520;28;20476;-72
2023/05/21 18:46:47;;;;;;;7.80;7.07;;;;;;;;;;5096403;28;20432;-72
2023/05/21 18:55:17;;;;;;;8.30;6.80;;;;;;;;;;5094182;28;20456;-73
2023/05/21 18:57:56;;;;;;;7.70;5.83;;;;;;;;;;5089476;28;20960;-72
2023/05/21 19:00:27;;;;;;;7.90;6.63;;;;;;;;;;5095409;28;20428;-72
2023/05/21 19:03:01;;;;;;;10.13;7.40;;;;;;;;;;5093035;28;20462;-72
2023/05/21 19:05:45;;;;;;;8.00;6.53;;;;;;;;;;5094085;28;21008;-71
2023/05/21 19:08:32;;;;;;;7.30;6.60;;;;;;;;;;5094175;28;20476;-72
2023/05/21 19:11:09;;;;;;;8.40;6.50;;;;;;;;;;5080633;28;20447;-72
2023/05/21 19:13:45;;;;;;;6.83;6.13;;;;;;;;;;5093666;28;20531;-72
2023/05/21 19:16:21;;;;;;;7.20;6.20;;;;;;;;;;5080071;28;20456;-73
2023/05/21 19:19:09;;;;;;;11.50;6.30;;;;;;;;;;5097691;28;20515;-73
2023/05/21 19:21:39;;;;;;;9.13;7.10;;;;;;;;;;5095849;28;20539;-72
2023/05/21 19:24:12;;;;;;;7.80;6.60;;;;;;;;;;5095598;28;20456;-71
2023/05/21 19:26:40;;;;;;;11.83;6.33;;;;;;;;;;5094134;28;20531;-73
2023/05/21 19:29:09;;;;;;;7.93;6.23;;;;;;;;;;5093875;28;20444;-70
2023/05/21 19:31:38;;;;;;;10.20;6.33;;;;;;;;;;5088725;28;21478;-69
2023/05/21 19:34:09;;;;;;;7.87;7.10;;;;;;;;;;5090826;28;20479;-69
2023/05/21 19:36:39;;;;;;;9.30;6.57;;;;;;;;;;5091644;28;20451;-71
2023/05/21 19:39:08;;;;;;;7.40;6.00;;;;;;;;;;5071705;28;20445;-70
2023/05/21 19:41:40;;;;;;;9.27;5.53;;;;;;;;;;5072592;28;20627;-71
2023/05/21 19:44:14;;;;;;;7.10;5.73;;;;;;;;;;5084456;28;20430;-71
2023/05/21 19:46:50;;;;;;;8.87;6.30;;;;;;;;;;5091868;28;20444;-71
2023/05/21 19:49:36;;;;;;;6.30;5.70;;;;;;;;;;5086613;28;20840;-69
2023/05/21 19:52:09;;;;;;;10.37;7.00;;;;;;;;;;5073937;28;20445;-70
2023/05/21 19:54:38;;;;;;;8.67;6.17;;;;;;;;;;5086420;28;20453;-69
2023/05/21 19:57:12;;;;;;;11.77;6.10;;;;;;;;;;5099075;28;20466;-69
2023/05/21 19:59:51;;;;;;;6.07;5.00;;;;;;;;;;5093441;28;20451;-70
2023/05/21 20:02:22;;;;;;;9.73;6.80;;;;;;;;;;5090018;28;20531;-70
2023/05/21 20:04:57;;;;;;;7.80;5.90;;;;;;;;;;5094257;28;20447;-70
2023/05/21 20:07:29;;;;;;;9.00;5.97;;;;;;;;;;5092396;28;20483;-71
2023/05/21 20:10:14;;;;;;;8.73;5.83;;;;;;;;;;5090978;28;20444;-69
2023/05/21 20:12:44;;;;;;;6.87;5.70;;;;;;;;;;5093430;28;20440;-71
2023/05/21 20:15:17;;;;;;;9.33;5.53;;;;;;;;;;5094324;28;21117;-71
2023/05/21 20:17:50;;;;;;;9.13;5.70;;;;;;;;;;5094820;28;20440;-70
2023/05/21 20:20:29;;;;;;;6.73;5.90;;;;;;;;;;5092473;28;20468;-71
2023/05/21 20:23:07;;;;;;;6.67;5.87;;;;;;;;;;5090695;28;20471;-70
2023/05/21 20:25:45;;;;;;;8.20;5.50;;;;;;;;;;5076110;28;20444;-69
2023/05/21 20:28:17;;;;;;;6.77;5.80;;;;;;;;;;5094328;28;20919;-72
2023/05/21 20:30:56;;;;;;;8.13;6.67;;;;;;;;;;5094596;28;20513;-70
2023/05/21 20:33:26;;;;;;;5.90;5.30;;;;;;;;;;5082253;28;21094;-69
2023/05/21 20:35:54;;;;;;;11.63;6.00;;;;;;;;;;5100322;28;20444;-70
2023/05/21 20:38:26;;;;;;;8.43;5.90;;;;;;;;;;5098857;28;20474;-70
2023/05/21 20:41:10;;;;;;;9.53;6.03;;;;;;;;;;5098756;28;20917;-70
2023/05/21 20:43:44;;;;;;;7.40;6.43;;;;;;;;;;5097126;28;20923;-69
2023/05/21 20:46:12;;;;;;;7.93;6.13;;;;;;;;;;5099238;28;20456;-70
2023/05/21 20:48:48;;;;;;;7.57;6.30;;;;;;;;;;5098676;28;20475;-72
2023/05/21 20:51:16;;;;;;;9.43;5.90;;;;;;;;;;5082215;28;20757;-69
2023/05/21 20:53:45;;;;;;;6.73;5.50;;;;;;;;;;5077776;28;20552;-71
2023/05/21 20:56:15;;;;;;;9.13;5.33;;;;;;;;;;5076723;28;20457;-71
2023/05/21 20:58:43;;;;;;;7.50;6.70;;;;;;;;;;5076117;28;21050;-69
2023/05/21 21:01:13;;;;;;;7.00;5.93;;;;;;;;;;5078583;28;20488;-70
2023/05/21 21:03:44;;;;;;;8.90;6.30;;;;;;;;;;5077429;28;20752;-69
2023/05/21 21:06:12;;;;;;;16.83;5.73;;;;;;;;;;5089142;28;20448;-70
2023/05/21 21:08:45;;;;;;;11.80;6.30;;;;;;;;;;5101136;28;20591;-69
2023/05/21 21:11:20;;;;;;;7.43;5.83;;;;;;;;;;5100886;28;20471;-71
2023/05/21 21:13:48;;;;;;;13.73;6.00;;;;;;;;;;5100029;28;20479;-70
2023/05/21 21:16:19;;;;;;;6.67;5.37;;;;;;;;;;5100129;28;20444;-70
2023/05/21 21:18:47;;;;;;;7.57;5.90;;;;;;;;;;5100918;28;20448;-70
2023/05/21 21:21:26;;;;;;;7.70;5.90;;;;;;;;;;5102417;28;21041;-71
2023/05/21 21:23:59;;;;;;;6.83;6.13;;;;;;;;;;5097234;28;20464;-70
2023/05/21 21:26:32;;;;;;;9.53;6.80;;;;;;;;;;5101537;28;20527;-71
2023/05/21 21:29:01;;;;;;;8.03;5.10;;;;;;;;;;5099836;28;20476;-70
2023/05/21 21:31:29;;;;;;;6.93;5.50;;;;;;;;;;5099861;28;20452;-71
2023/05/21 21:34:04;;;;;;;9.63;5.70;;;;;;;;;;5079297;28;20455;-70
2023/05/21 21:36:36;;;;;;;5.70;5.00;;;;;;;;;;5099440;28;20448;-69
2023/05/21 21:39:15;;;;;;;6.03;5.43;;;;;;;;;;5098794;28;20451;-69
2023/05/21 21:41:55;;;;;;;6.83;5.40;;;;;;;;;;5094351;28;20617;-69
2023/05/21 21:44:24;;;;;;;6.20;4.80;;;;;;;;;;5086548;28;20475;-68
2023/05/21 21:46:52;;;;;;;7.47;6.03;;;;;;;;;;5080061;28;20743;-71
2023/05/21 21:49:22;;;;;;;7.10;5.70;;;;;;;;;;5079111;28;20564;-71
2023/05/21 21:51:58;;;;;;;6.90;5.63;;;;;;;;;;5079203;28;20522;-70
2023/05/21 21:54:34;;;;;;;5.73;5.13;;;;;;;;;;5078605;28;20915;-71
2023/05/21 21:57:26;;;;;;;7.77;6.23;;;;;;;;;;5080353;28;20857;-69
2023/05/21 22:00:09;;;;;;;6.90;5.20;;;;;;;;;;5084968;28;20464;-71
2023/05/21 22:02:40;;;;;;;10.13;6.17;;;;;;;;;;5099716;28;20463;-70
2023/05/21 22:05:13;;;;;;;7.17;5.43;;;;;;;;;;5100848;28;20525;-69
2023/05/21 22:10:26;;;;;;;11.23;5.83;;;;;;;;;;5093305;28;20529;-70
2023/05/21 22:12:54;;;;;;;6.67;5.63;;;;;;;;;;5083119;28;20929;-69
2023/05/21 22:15:33;;;;;;;7.70;5.77;;;;;;;;;;5099537;28;20456;-71
2023/05/21 22:18:03;;;;;;;10.97;5.20;;;;;;;;;;5096404;28;20448;-69
2023/05/21 22:20:33;;;;;;;6.03;5.00;;;;;;;;;;5097387;28;20450;-69
2023/05/21 22:23:05;;;;;;;7.83;5.30;;;;;;;;;;5093744;28;20451;-70
2023/05/21 22:25:34;;;;;;;7.77;5.70;;;;;;;;;;5086862;28;20519;-71
2023/05/21 22:28:03;;;;;;;7.03;5.83;;;;;;;;;;5075468;28;20480;-70
2023/05/21 22:30:38;;;;;;;7.53;5.80;;;;;;;;;;5094737;28;20440;-70
2023/05/21 22:36:05;;;;;;;6.60;5.80;;;;;;;;;;1501895;26;20557;-82
2023/05/21 22:38:33;;;;;;;7.43;5.00;;;;;;;;;;5130390;28;20447;-80
2023/05/21 22:41:02;;;;;;;6.90;5.43;;;;;;;;;;5126158;28;20444;-83
2023/05/21 22:43:32;;;;;;;8.00;5.97;;;;;;;;;;5127618;28;20790;-82
2023/05/21 22:46:04;;;;;;;8.00;5.60;;;;;;;;;;5129116;28;20448;-82
2023/05/21 22:48:33;;;;;;;8.43;6.17;;;;;;;;;;5131973;28;20479;-82
2023/05/21 22:51:03;;;;;;;9.27;6.00;;;;;;;;;;5128519;28;20459;-81
2023/05/21 22:53:34;;;;;;;7.17;5.73;;;;;;;;;;5127624;28;20840;-82
2023/05/21 22:56:05;;;;;;;6.80;5.63;;;;;;;;;;5124527;28;20455;-81
2023/05/21 22:58:33;;;;;;;6.50;5.77;;;;;;;;;;5124725;28;20447;-80
2023/05/21 23:01:03;;;;;;;7.20;5.27;;;;;;;;;;5127303;28;20889;-80
2023/05/21 23:03:36;;;;;;;6.90;6.20;;;;;;;;;;5125466;28;20859;-82
2023/05/21 23:06:04;;;;;;;6.93;5.97;;;;;;;;;;5124463;28;20538;-81
2023/05/21 23:08:32;;;;;;;6.33;5.50;;;;;;;;;;5126213;28;20483;-80
2023/05/21 23:11:00;;;;;;;11.83;5.97;;;;;;;;;;5125845;28;20530;-79
2023/05/21 23:13:31;;;;;;;9.50;6.90;;;;;;;;;;5122154;28;20451;-82
2023/05/21 23:15:59;;;;;;;8.13;5.87;;;;;;;;;;5124138;28;20459;-83
2023/05/21 23:18:31;;;;;;;7.87;5.80;;;;;;;;;;5128182;28;20447;-81
2023/05/21 23:20:59;;;;;;;7.37;5.13;;;;;;;;;;5135150;22;20491;-70
2023/05/21 23:23:26;;;;;;;5.97;5.30;;;;;;;;;;5098446;28;20466;-69
2023/05/21 23:25:56;;;;;;;6.37;4.60;;;;;;;;;;5097131;28;20491;-70
2023/05/21 23:28:23;;;;;;;7.10;5.43;;;;;;;;;;5097597;28;20550;-70
2023/05/21 23:30:52;;;;;;;7.00;5.50;;;;;;;;;;5098629;28;20471;-70
2023/05/21 23:36:04;;;;;;;6.70;5.60;;;;;;;;;;4920972;26;20456;-83
2023/05/21 23:38:32;;;;;;;9.00;6.20;;;;;;;;;;5104266;28;20459;-79
2023/05/21 23:41:00;;;;;;;6.60;5.90;;;;;;;;;;5104313;28;20448;-81
2023/05/21 23:43:28;;;;;;;7.17;5.47;;;;;;;;;;5104872;28;20524;-80
2023/05/21 23:45:55;;;;;;;7.80;6.20;;;;;;;;;;5105869;28;20593;-81
2023/05/21 23:48:23;;;;;;;8.33;5.43;;;;;;;;;;5102773;28;20484;-80
2023/05/21 23:50:51;;;;;;;6.77;6.07;;;;;;;;;;5102898;28;20898;-80
2023/05/21 23:53:21;;;;;;;6.20;5.57;;;;;;;;;;5106240;28;20440;-79
2023/05/21 23:55:49;;;;;;;6.50;5.23;;;;;;;;;;5105054;28;20452;-78
2023/05/21 23:58:19;;;;;;;7.77;5.50;;;;;;;;;;5106306;28;20531;-80
